createdAt,value
2019-04-11T00:00:44.655Z,13.2
2019-04-11T00:02:57.249Z,12.9
2019-04-11T00:07:22.503Z,11.9
2019-04-11T00:09:35.108Z,11.6
2019-04-11T00:10:41.041Z,11.7
2019-04-11T00:14:00.369Z,13.3
2019-04-11T00:15:06.658Z,11.2
2019-04-11T00:16:12.958Z,13.3
2019-04-11T00:18:25.553Z,11.9
2019-04-11T00:19:31.859Z,11.6
2019-04-11T00:22:50.816Z,11.9
2019-04-11T00:25:03.424Z,12.8
2019-04-11T00:29:28.715Z,11.2
2019-04-11T00:32:47.629Z,11.4
2019-04-11T00:33:53.904Z,12.8
2019-04-11T00:36:06.547Z,12.6
2019-04-11T00:40:31.787Z,11.7
2019-04-11T00:41:38.068Z,13.5
2019-04-11T00:42:44.380Z,12.6
2019-04-11T00:47:09.586Z,11.6
2019-04-11T00:51:34.820Z,11.7
2019-04-11T00:53:47.478Z,11.6
2019-04-11T00:54:53.846Z,11.2
2019-04-11T00:56:00.102Z,11.4
2019-04-11T01:00:25.344Z,11.3
2019-04-11T01:02:37.952Z,12.4
2019-04-11T01:03:44.249Z,11
2019-04-11T01:07:03.143Z,11.9
2019-04-11T01:11:28.431Z,10.7
2019-04-11T01:13:41.032Z,10.9
2019-04-11T01:16:59.095Z,11.4
2019-04-11T01:18:06.257Z,12.1
2019-04-11T01:20:18.875Z,11.2
2019-04-11T01:21:25.227Z,11.3
2019-04-11T01:22:31.527Z,11.9
2019-04-11T01:25:50.432Z,11
2019-04-11T01:26:56.741Z,11.4
2019-04-11T01:31:21.976Z,11.6
2019-04-11T01:35:47.172Z,10.8
2019-04-11T01:39:06.097Z,12.9
2019-04-11T01:40:12.456Z,11.2
2019-04-11T01:47:56.586Z,11.1
2019-04-11T01:49:02.945Z,12.1
2019-04-11T01:53:28.162Z,11.1
2019-04-11T01:57:53.347Z,11.5
2019-04-11T02:00:05.990Z,11.5
2019-04-11T02:01:12.347Z,11.2
2019-04-11T02:04:31.260Z,11.3
2019-04-11T02:05:37.602Z,11.2
2019-04-11T02:06:43.936Z,12.2
2019-04-11T02:10:02.756Z,11.4
2019-04-11T02:11:09.105Z,12
2019-04-11T02:17:46.927Z,11.4
2019-04-11T02:19:59.526Z,11.3
2019-04-11T02:22:12.168Z,10.8
2019-04-11T02:23:18.051Z,12.1
2019-04-11T02:24:24.819Z,11.8
2019-04-11T02:25:31.123Z,11.8
2019-04-11T02:26:37.382Z,11
2019-04-11T02:27:43.693Z,11.2
2019-04-11T02:31:02.628Z,10.8
2019-04-11T02:32:08.095Z,12.8
2019-04-11T02:33:15.239Z,12.5
2019-04-11T02:37:40.522Z,11.4
2019-04-11T02:39:53.009Z,11
2019-04-11T02:42:05.726Z,11.5
2019-04-11T02:45:24.631Z,10.5
2019-04-11T02:49:49.917Z,12.1
2019-04-11T02:50:56.020Z,11.8
2019-04-11T02:53:08.808Z,11.9
2019-04-11T02:54:15.152Z,11.1
2019-04-11T02:55:21.512Z,12.7
2019-04-11T02:57:34.021Z,12.3
2019-04-11T02:59:46.667Z,11.4
2019-04-11T03:01:59.312Z,12.9
2019-04-11T03:04:11.913Z,11.2
2019-04-11T03:07:30.797Z,11.1
2019-04-11T03:08:37.148Z,11.7
2019-04-11T03:11:56.207Z,11.7
2019-04-11T03:15:15.030Z,12.6
2019-04-11T03:16:21.325Z,12.3
2019-04-11T03:17:27.644Z,11.6
2019-04-11T03:21:52.816Z,11.1
2019-04-11T03:24:05.429Z,11.8
2019-04-11T03:26:18.012Z,11.3
2019-04-11T03:29:36.981Z,11.2
2019-04-11T03:30:43.282Z,11.4
2019-04-11T03:34:02.253Z,11.9
2019-04-11T03:35:08.559Z,11.2
2019-04-11T03:37:21.197Z,10.9
2019-04-11T03:38:27.046Z,11.3
2019-04-11T03:39:33.753Z,12.5
2019-04-11T03:46:11.627Z,11.5
2019-04-11T03:48:24.246Z,11
2019-04-11T03:51:43.160Z,11.1
2019-04-11T03:52:49.505Z,13.1
2019-04-11T03:56:08.440Z,11.4
2019-04-11T03:59:27.359Z,12.6
2019-04-11T04:00:33.660Z,12.4
2019-04-11T04:01:39.982Z,13.5
2019-04-11T04:03:52.544Z,12.2
2019-04-11T04:06:05.436Z,12.8
2019-04-11T04:08:17.788Z,11.8
2019-04-11T04:13:49.372Z,11.8
2019-04-11T04:14:55.669Z,11.3
2019-04-11T04:17:08.265Z,12.8
2019-04-11T04:18:14.617Z,12.5
2019-04-11T04:19:20.917Z,11.4
2019-04-11T04:21:33.546Z,12
2019-04-11T04:22:39.821Z,13
2019-04-11T04:23:46.010Z,12.4
2019-04-11T04:25:58.716Z,12.7
2019-04-11T04:30:23.954Z,12.6
2019-04-11T04:32:36.641Z,12.4
2019-04-11T04:35:55.496Z,12.7
2019-04-11T04:37:01.856Z,13.4
2019-04-11T04:39:14.424Z,11.5
2019-04-11T04:41:27.068Z,13.9
2019-04-11T04:43:39.685Z,12.5
2019-04-11T04:44:46.009Z,13.7
2019-04-11T04:48:04.922Z,12.7
2019-04-11T04:49:11.214Z,13.3
2019-04-11T04:50:17.525Z,12.9
2019-04-11T04:52:30.181Z,12.9
2019-04-11T04:54:42.788Z,12.9
2019-04-11T04:55:49.067Z,13
2019-04-11T04:56:55.390Z,13.3
2019-04-11T04:58:01.692Z,13.6
2019-04-11T04:59:07.099Z,14.3
2019-04-11T05:01:20.625Z,13.5
2019-04-11T05:06:52.144Z,14
2019-04-11T05:07:58.458Z,13.5
2019-04-11T05:10:11.078Z,16.4
2019-04-11T05:12:23.710Z,14.1
2019-04-11T05:13:30.002Z,14.7
2019-04-11T05:14:36.493Z,15.5
2019-04-11T05:16:48.095Z,14.5
2019-04-11T05:20:07.839Z,15.2
2019-04-11T05:21:14.209Z,13.3
2019-04-11T05:27:52.054Z,13.4
2019-04-11T05:28:58.342Z,15.3
2019-04-11T05:30:04.660Z,13.9
2019-04-11T05:32:17.297Z,15.3
2019-04-11T05:34:29.884Z,16
2019-04-11T05:41:07.762Z,14.1
2019-04-11T05:42:14.031Z,14
2019-04-11T05:45:32.955Z,16.3
2019-04-11T05:46:39.270Z,14.9
2019-04-11T05:49:58.250Z,16.4
2019-04-11T05:51:04.509Z,15.7
2019-04-11T05:52:10.847Z,16.2
2019-04-11T05:58:48.676Z,15.9
2019-04-11T06:01:01.323Z,15.8
2019-04-11T06:04:20.202Z,18.1
2019-04-11T06:05:26.526Z,15.1
2019-04-11T06:08:45.432Z,16.4
2019-04-11T06:09:51.074Z,16.5
2019-04-11T06:12:04.366Z,15.9
2019-04-11T06:13:10.672Z,15.9
2019-04-11T06:14:16.995Z,16
2019-04-11T06:17:35.938Z,19.2
2019-04-11T06:18:42.249Z,15
2019-04-11T06:23:07.004Z,15.9
2019-04-11T06:26:26.372Z,15.1
2019-04-11T06:34:10.549Z,17.6
2019-04-11T06:35:16.846Z,15.4
2019-04-11T06:38:35.789Z,14.8
2019-04-11T06:39:42.065Z,16.5
2019-04-11T06:40:48.397Z,15.1
2019-04-11T06:45:13.636Z,14.7
2019-04-11T06:47:26.024Z,15.8
2019-04-11T06:48:32.568Z,15.8
2019-04-11T06:52:57.778Z,15.3
2019-04-11T06:54:04.066Z,15.1
2019-04-11T06:56:16.740Z,14.2
2019-04-11T06:57:23.043Z,16.9
2019-04-11T06:58:29.361Z,15.1
2019-04-11T07:02:54.610Z,14.4
2019-04-11T07:05:07.170Z,14.2
2019-04-11T07:07:19.786Z,16.5
2019-04-11T07:09:32.004Z,15.5
2019-04-11T07:10:38.731Z,15.4
2019-04-11T07:13:57.674Z,17.7
2019-04-11T07:15:03.097Z,13.7
2019-04-11T07:16:10.263Z,14.2
2019-04-11T07:18:22.869Z,13.9
2019-04-11T07:19:29.165Z,14.4
2019-04-11T07:20:35.539Z,13.6
2019-04-11T07:22:48.091Z,12.2
2019-04-11T07:25:00.767Z,12.9
2019-04-11T07:29:25.009Z,11.9
2019-04-11T07:32:44.886Z,12.2
2019-04-11T07:33:51.195Z,11.8
2019-04-11T07:37:10.016Z,11.9
2019-04-11T07:38:16.444Z,14.1
2019-04-11T07:40:29.074Z,12.3
2019-04-11T07:41:35.561Z,12.3
2019-04-11T07:42:41.663Z,13.6
2019-04-11T07:47:06.929Z,14
2019-04-11T07:53:44.762Z,13.2
2019-04-11T07:54:51.079Z,13.7
2019-04-11T07:59:16.312Z,12.1
2019-04-11T08:02:35.260Z,11.3
2019-04-11T08:03:41.545Z,12.1
2019-04-11T08:04:47.845Z,11.2
2019-04-11T08:07:00.516Z,11
2019-04-11T08:09:13.067Z,12
2019-04-11T08:13:38.308Z,11.1
2019-04-11T08:16:57.281Z,10.1
2019-04-11T08:21:22.453Z,10.5
2019-04-11T08:25:47.733Z,9.6
2019-04-11T08:29:06.632Z,11
2019-04-11T08:31:19.256Z,10.5
2019-04-11T08:33:31.865Z,10.4
2019-04-11T08:35:44.533Z,11.7
2019-04-11T08:37:57.098Z,11.7
2019-04-11T08:39:03.042Z,13.4
2019-04-11T08:40:09.708Z,14.1
2019-04-11T08:43:28.643Z,10.7
2019-04-11T08:46:47.063Z,11.7
2019-04-11T08:47:53.919Z,10.5
2019-04-11T08:49:00.240Z,10.5
2019-04-11T08:53:25.485Z,11.1
2019-04-11T08:55:38.070Z,10.2
2019-04-11T08:57:50.067Z,11.8
2019-04-11T09:00:03.344Z,10.7
2019-04-11T09:01:09.611Z,10.5
2019-04-11T09:04:28.538Z,12.3
2019-04-11T09:05:34.891Z,10.5
2019-04-11T09:06:42.274Z,10.2
2019-04-11T09:08:53.844Z,11.1
2019-04-11T09:10:00.107Z,10.7
2019-04-11T09:11:06.401Z,11.3
2019-04-11T09:13:19.049Z,11.6
2019-04-11T09:14:25.347Z,11.6
2019-04-11T09:17:44.303Z,11
2019-04-11T09:19:56.906Z,11.8
2019-04-11T09:22:09.519Z,11.5
2019-04-11T09:23:15.838Z,11
2019-04-11T09:24:22.197Z,11.9
2019-04-11T09:26:34.752Z,11.6
2019-04-11T09:27:41.060Z,10.6
2019-04-11T09:28:47.379Z,11.9
2019-04-11T09:31:00.016Z,11
2019-04-11T09:32:06.377Z,11.1
2019-04-11T09:33:12.651Z,10.7
2019-04-11T09:35:25.027Z,11.1
2019-04-11T09:36:31.543Z,13.3
2019-04-11T09:37:37.907Z,12
2019-04-11T09:39:50.548Z,10.1
2019-04-11T09:45:22.073Z,10.5
2019-04-11T09:46:28.420Z,10.7
2019-04-11T09:49:47.295Z,12.8
2019-04-11T09:50:53.594Z,10.8
2019-04-11T09:53:06.240Z,12
2019-04-11T09:54:12.576Z,11.7
2019-04-11T09:55:18.870Z,11.4
2019-04-11T09:57:31.489Z,10.4
2019-04-11T09:59:44.100Z,10.1
2019-04-11T10:07:28.304Z,10.9
2019-04-11T10:10:47.234Z,9.8
2019-04-11T10:11:53.540Z,9.8
2019-04-11T10:12:59.795Z,9.6
2019-04-11T10:15:12.048Z,9.1
2019-04-11T10:16:18.770Z,9.7
2019-04-11T10:21:50.322Z,9.3
2019-04-11T10:24:03.006Z,9.2
2019-04-11T10:26:15.541Z,9.6
2019-04-11T10:29:34.496Z,8.7
2019-04-11T10:30:40.796Z,9.2
2019-04-11T10:33:59.717Z,8.6
2019-04-11T10:35:06.000Z,8.9
2019-04-11T10:38:24.932Z,8.4
2019-04-11T10:39:31.239Z,9.4
2019-04-11T10:41:43.881Z,8.4
2019-04-11T10:43:56.506Z,8.3
2019-04-11T10:48:21.729Z,7.9
2019-04-11T10:51:40.666Z,7.2
2019-04-11T10:52:47.034Z,7.5
2019-04-11T10:54:59.593Z,6.7
2019-04-11T10:56:05.969Z,8
2019-04-11T10:59:24.890Z,6.5
2019-04-11T11:00:31.188Z,7.2
2019-04-11T11:01:37.511Z,6.9
2019-04-11T11:06:02.741Z,6.4
2019-04-11T11:08:15.364Z,7.6
2019-04-11T11:10:28.004Z,6.7
2019-04-11T11:12:40.590Z,6.4
2019-04-11T11:13:46.896Z,6.8
2019-04-11T11:14:53.214Z,7.1
2019-04-11T11:18:12.164Z,6.6
2019-04-11T11:19:18.544Z,6.6
2019-04-11T11:21:31.146Z,7
2019-04-11T11:22:37.415Z,6.9
2019-04-11T11:23:43.070Z,7.4
2019-04-11T11:25:56.333Z,6.9
2019-04-11T11:28:08.946Z,6.7
2019-04-11T11:30:21.606Z,6.6
2019-04-11T11:34:46.854Z,7.2
2019-04-11T11:35:53.001Z,6.2
2019-04-11T11:39:12.075Z,6.4
2019-04-11T11:40:18.381Z,7.8
2019-04-11T11:41:24.694Z,6.3
2019-04-11T11:44:44.202Z,6.2
2019-04-11T11:45:50.006Z,5.9
2019-04-11T11:49:08.914Z,13.1
2019-04-11T11:50:15.020Z,8.9
2019-04-11T11:57:59.401Z,6.1
2019-04-11T11:59:05.703Z,6.2
2019-04-11T12:01:18.321Z,9.4
2019-04-11T12:02:24.632Z,7.5
2019-04-11T12:03:30.921Z,7.2
2019-04-11T12:04:37.210Z,5.9
2019-04-11T12:05:43.528Z,5.9
2019-04-11T12:06:49.846Z,6.7
2019-04-11T12:07:56.143Z,6.7
2019-04-11T12:12:21.397Z,6.3
2019-04-11T12:16:46.701Z,6.3
2019-04-11T12:21:11.934Z,7.7
2019-04-11T12:23:24.548Z,8.1
2019-04-11T12:24:30.864Z,7.5
2019-04-11T12:28:56.066Z,8.4
2019-04-11T12:30:02.477Z,9.3
2019-04-11T12:34:27.619Z,8.8
2019-04-11T12:42:11.008Z,9.4
2019-04-11T12:43:18.137Z,9.1
2019-04-11T12:46:37.219Z,9.6
2019-04-11T12:47:43.388Z,9.9
2019-04-11T12:48:49.669Z,9.7
2019-04-11T12:49:55.964Z,9.9
2019-04-11T12:51:02.256Z,9.5
2019-04-11T12:52:08.063Z,9.7
2019-04-11T12:53:14.933Z,9.2
2019-04-11T12:54:21.253Z,10.4
2019-04-11T12:56:33.861Z,9.6
2019-04-11T12:57:40.146Z,9.3
2019-04-11T13:00:59.066Z,9.8
2019-04-11T13:03:11.744Z,9
2019-04-11T13:04:17.983Z,8.8
2019-04-11T13:05:24.351Z,9.3
2019-04-11T13:08:43.290Z,9.4
2019-04-11T13:09:49.057Z,9.7
2019-04-11T13:12:02.154Z,10
2019-04-11T13:13:08.476Z,14.9
2019-04-11T13:14:14.799Z,10
2019-04-11T13:23:05.324Z,10.8
2019-04-11T13:26:24.211Z,11.1
2019-04-11T13:27:30.567Z,10.4
2019-04-11T13:28:36.086Z,11.3
2019-04-11T13:29:43.150Z,12.5
2019-04-11T13:30:49.643Z,11
2019-04-11T13:31:55.757Z,11.7
2019-04-11T13:35:14.685Z,11.4
2019-04-11T13:42:58.910Z,11.5
2019-04-11T13:45:11.049Z,11.7
2019-04-11T13:46:17.797Z,11.6
2019-04-11T13:48:30.482Z,12.1
2019-04-11T13:49:36.744Z,11.8
2019-04-11T13:51:49.404Z,12.1
2019-04-11T13:52:55.703Z,12.5
2019-04-11T13:54:02.039Z,12
2019-04-11T13:56:14.592Z,12.6
2019-04-11T13:57:20.962Z,12.1
2019-04-11T13:58:27.260Z,11.9
2019-04-11T13:59:33.051Z,12.5
2019-04-11T14:00:39.831Z,13.1
2019-04-11T14:01:46.190Z,14.4
2019-04-11T14:02:52.528Z,11.9
2019-04-11T14:05:05.137Z,13.1
2019-04-11T14:07:17.738Z,11.6
2019-04-11T14:09:30.322Z,12.5
2019-04-11T14:10:36.681Z,13.3
2019-04-11T14:11:42.939Z,13.2
2019-04-11T14:12:49.261Z,13.1
2019-04-11T14:13:55.058Z,12.8
2019-04-11T14:15:01.861Z,12.4
2019-04-11T14:16:08.239Z,12.6
2019-04-11T14:19:27.157Z,11.4
2019-04-11T14:23:52.039Z,15
2019-04-11T14:24:58.690Z,11.4
2019-04-11T14:26:05.013Z,11.9
2019-04-11T14:27:11.302Z,12.1
2019-04-11T14:29:23.920Z,11.7
2019-04-11T14:31:36.568Z,12.1
2019-04-11T14:32:42.860Z,13.2
2019-04-11T14:33:49.148Z,13.8
2019-04-11T14:36:01.804Z,12.9
2019-04-11T14:37:08.168Z,10.8
2019-04-11T14:38:14.491Z,10.4
2019-04-11T14:41:33.398Z,11
2019-04-11T14:44:52.251Z,10.7
2019-04-11T14:47:04.911Z,10.9
2019-04-11T14:49:17.512Z,12.5
2019-04-11T14:51:30.112Z,10.7
2019-04-11T14:54:49.000Z,10.8
2019-04-11T14:57:01.697Z,11
2019-04-11T14:58:07.978Z,12
2019-04-11T14:59:14.355Z,11
2019-04-11T15:02:33.027Z,10.4
2019-04-11T15:03:39.556Z,11.3
2019-04-11T15:04:45.944Z,12.2
2019-04-11T15:09:11.001Z,10
2019-04-11T15:10:17.041Z,9.8
2019-04-11T15:13:36.035Z,11.3
2019-04-11T15:16:55.278Z,9.7
2019-04-11T15:18:01.591Z,10.3
2019-04-11T15:21:20.543Z,10.9
2019-04-11T15:22:26.864Z,10.9
2019-04-11T15:23:33.175Z,11.3
2019-04-11T15:25:45.778Z,11.4
2019-04-11T15:26:52.094Z,11
2019-04-11T15:31:17.327Z,11.3
2019-04-11T15:33:29.983Z,10.2
2019-04-11T15:39:01.540Z,10.5
2019-04-11T15:42:20.446Z,10.5
2019-04-11T15:43:26.737Z,9.8
2019-04-11T15:44:33.038Z,13.5
2019-04-11T15:47:51.098Z,10.9
2019-04-11T15:48:58.347Z,10.6
2019-04-11T15:50:04.631Z,10.8
2019-04-11T15:52:17.245Z,10.1
2019-04-11T15:53:23.636Z,10.4
2019-04-11T15:54:29.890Z,10.3
2019-04-11T15:55:36.160Z,11
2019-04-11T15:57:48.785Z,10.5
2019-04-11T16:00:01.437Z,10.6
2019-04-11T16:01:07.720Z,10.5
2019-04-11T16:04:26.694Z,12.3
2019-04-11T16:06:39.318Z,11.6
2019-04-11T16:09:58.253Z,11.4
2019-04-11T16:11:04.536Z,10.9
2019-04-11T16:15:29.809Z,10.4
2019-04-11T16:17:42.412Z,11
2019-04-11T16:19:55.025Z,12.3
2019-04-11T16:22:07.622Z,10.1
2019-04-11T16:23:13.966Z,11.1
2019-04-11T16:26:32.085Z,11.5
2019-04-11T16:27:39.703Z,11.3
2019-04-11T16:28:45.500Z,10.7
2019-04-11T16:29:51.791Z,10.4
2019-04-11T16:30:58.176Z,11
2019-04-11T16:32:04.041Z,11.5
2019-04-11T16:35:23.399Z,11.5
2019-04-11T16:36:29.709Z,11.4
2019-04-11T16:37:35.097Z,13.1
2019-04-11T16:39:48.623Z,14.5
2019-04-11T16:45:20.218Z,14
2019-04-11T16:46:26.473Z,11.1
2019-04-11T16:48:39.110Z,10.9
2019-04-11T16:49:45.430Z,11.1
2019-04-11T16:54:10.006Z,11.9
2019-04-11T16:55:16.095Z,12.5
2019-04-11T16:58:35.902Z,12.9
2019-04-11T17:00:48.584Z,11.3
2019-04-11T17:01:54.874Z,11.9
2019-04-11T17:04:07.462Z,11.5
2019-04-11T17:07:26.424Z,11.2
2019-04-11T17:08:32.718Z,11.7
2019-04-11T17:10:45.371Z,11.6
2019-04-11T17:11:51.006Z,11.2
2019-04-11T17:12:57.932Z,12.9
2019-04-11T17:14:04.301Z,11.3
2019-04-11T17:15:10.572Z,11.7
2019-04-11T17:16:16.880Z,12.5
2019-04-11T17:17:23.235Z,12.4
2019-04-11T17:18:29.499Z,12.2
2019-04-11T17:20:42.109Z,12
2019-04-11T17:21:48.461Z,11.1
2019-04-11T17:24:01.042Z,10.6
2019-04-11T17:26:13.698Z,11.7
2019-04-11T17:28:26.315Z,11.7
2019-04-11T17:29:32.619Z,11
2019-04-11T17:30:38.097Z,13
2019-04-11T17:33:57.889Z,11.6
2019-04-11T17:35:04.016Z,12.5
2019-04-11T17:36:10.486Z,11.3
2019-04-11T17:38:23.137Z,12.4
2019-04-11T17:39:29.450Z,10.7
2019-04-11T17:40:35.742Z,11.5
2019-04-11T17:43:54.704Z,11.7
2019-04-11T17:46:07.295Z,11.8
2019-04-11T17:48:19.095Z,12
2019-04-11T17:49:26.230Z,10.9
2019-04-11T17:50:32.539Z,10.9
2019-04-11T17:51:38.861Z,10.9
2019-04-11T17:54:57.757Z,11.6
2019-04-11T17:56:04.121Z,12.4
2019-04-11T17:57:10.436Z,11.7
2019-04-11T17:58:16.724Z,11.3
2019-04-11T18:00:29.344Z,11.2
2019-04-11T18:02:42.002Z,10.5
2019-04-11T18:04:54.584Z,11.8
2019-04-11T18:08:13.541Z,10.9
2019-04-11T18:10:26.012Z,10.9
2019-04-11T18:13:45.086Z,11.3
2019-04-11T18:14:51.394Z,10.4
2019-04-11T18:18:10.322Z,11.6
2019-04-11T18:19:16.664Z,10.4
2019-04-11T18:21:29.246Z,10.9
2019-04-11T18:22:35.579Z,12
2019-04-11T18:23:41.882Z,12.7
2019-04-11T18:28:07.090Z,13.1
2019-04-11T18:30:19.722Z,12.1
2019-04-11T18:34:44.989Z,10.9
2019-04-11T18:35:51.296Z,10.4
2019-04-11T18:36:57.617Z,11.1
2019-04-11T18:40:16.524Z,10.7
2019-04-11T18:41:22.816Z,10.6
2019-04-11T18:43:35.462Z,11.6
2019-04-11T18:44:41.780Z,13.2
2019-04-11T18:45:48.112Z,10.5
2019-04-11T18:46:54.361Z,10.6
2019-04-11T18:48:00.668Z,10.4
2019-04-11T18:49:06.096Z,10.8
2019-04-11T18:50:13.266Z,10.3
2019-04-11T18:56:51.012Z,10.1
2019-04-11T18:57:57.042Z,10.5
2019-04-11T18:59:03.076Z,10.9
2019-04-11T19:03:28.975Z,12.8
2019-04-11T19:05:41.637Z,10.5
2019-04-11T19:06:47.095Z,11.1
2019-04-11T19:07:54.256Z,13.7
2019-04-11T19:09:00.569Z,11
2019-04-11T19:11:13.143Z,12.5
2019-04-11T19:14:32.051Z,11.2
2019-04-11T19:16:44.724Z,10.2
2019-04-11T19:18:57.290Z,12.9
2019-04-11T19:20:03.593Z,12.3
2019-04-11T19:21:09.952Z,10.8
2019-04-11T19:22:16.251Z,10.1
2019-04-11T19:23:22.542Z,13
2019-04-11T19:25:35.208Z,11
2019-04-11T19:27:47.077Z,10.2
2019-04-11T19:28:54.117Z,10.3
2019-04-11T19:31:06.754Z,12
2019-04-11T19:33:19.363Z,12.5
2019-04-11T19:34:25.062Z,10.1
2019-04-11T19:36:38.283Z,11.6
2019-04-11T19:41:03.481Z,10.9
2019-04-11T19:42:09.982Z,11.2
2019-04-11T19:43:16.138Z,10.7
2019-04-11T19:45:28.074Z,11.4
2019-04-11T19:46:35.025Z,10
2019-04-11T19:47:41.333Z,10.3
2019-04-11T19:49:53.094Z,10.3
2019-04-11T19:51:00.003Z,11.7
2019-04-11T19:52:06.559Z,10.5
2019-04-11T19:54:19.244Z,10.8
2019-04-11T19:55:25.560Z,9.8
2019-04-11T19:56:31.811Z,10.2
2019-04-11T19:57:38.173Z,10.5
2019-04-11T19:58:44.471Z,11.4
2019-04-11T20:00:57.104Z,10.8
2019-04-11T20:03:09.702Z,9.8
2019-04-11T20:04:16.011Z,12.4
2019-04-11T20:05:22.284Z,11
2019-04-11T20:07:34.940Z,10.5
2019-04-11T20:08:41.231Z,11.1
2019-04-11T20:09:47.563Z,10.8
2019-04-11T20:13:06.049Z,10.2
2019-04-11T20:14:12.797Z,10.3
2019-04-11T20:18:38.016Z,10.9
2019-04-11T20:25:15.852Z,11.3
2019-04-11T20:26:22.015Z,11.3
2019-04-11T20:27:28.460Z,10.5
2019-04-11T20:31:53.683Z,11
2019-04-11T20:35:12.682Z,11.8
2019-04-11T20:36:18.988Z,10.7
2019-04-11T20:40:44.196Z,11.7
2019-04-11T20:42:56.826Z,10.8
2019-04-11T20:45:09.407Z,10.6
2019-04-11T20:47:22.025Z,11.3
2019-04-11T20:48:28.031Z,12
2019-04-11T20:49:34.692Z,11.1
2019-04-11T20:51:47.272Z,11.5
2019-04-11T20:52:53.623Z,12.6
2019-04-11T20:53:59.876Z,10.7
2019-04-11T20:55:06.173Z,12.3
2019-04-11T20:57:18.007Z,12.9
2019-04-11T20:58:25.103Z,10.1
2019-04-11T21:00:37.763Z,10
2019-04-11T21:02:50.465Z,10.5
2019-04-11T21:05:02.990Z,12
2019-04-11T21:07:15.581Z,10.5
2019-04-11T21:08:21.955Z,10.3
2019-04-11T21:09:28.258Z,11.8
2019-04-11T21:10:34.543Z,10.7
2019-04-11T21:11:40.831Z,11
2019-04-11T21:13:53.433Z,10.5
2019-04-11T21:14:59.792Z,11.4
2019-04-11T21:16:06.189Z,11
2019-04-11T21:18:18.685Z,10.9
2019-04-11T21:19:25.036Z,11
2019-04-11T21:20:31.302Z,11.2
2019-04-11T21:22:43.975Z,11.1
2019-04-11T21:24:56.057Z,10.7
2019-04-11T21:27:09.157Z,10.9
2019-04-11T21:29:21.779Z,11.3
2019-04-11T21:31:34.408Z,11.1
2019-04-11T21:32:40.070Z,11.5
2019-04-11T21:33:47.023Z,11
2019-04-11T21:40:24.085Z,11.1
2019-04-11T21:41:31.174Z,11.3
2019-04-11T21:42:37.531Z,11.8
2019-04-11T21:44:50.001Z,12.2
2019-04-11T21:47:02.074Z,14
2019-04-11T21:48:09.033Z,11.1
2019-04-11T21:51:27.989Z,12.5
2019-04-11T21:53:40.579Z,11.3
2019-04-11T21:54:46.875Z,10.9
2019-04-11T21:55:53.018Z,13.9
2019-04-11T21:56:59.516Z,11.6
2019-04-11T21:59:12.013Z,12.5
2019-04-11T22:00:18.438Z,11.4
2019-04-11T22:02:31.003Z,11.1
2019-04-11T22:03:37.328Z,11.2
2019-04-11T22:04:43.870Z,11.7
2019-04-11T22:06:56.742Z,13.9
2019-04-11T22:13:34.167Z,11.2
2019-04-11T22:14:40.445Z,11.4
2019-04-11T22:15:46.757Z,11.1
2019-04-11T22:16:53.056Z,12.1
2019-04-11T22:17:59.347Z,11.8
2019-04-11T22:22:24.625Z,12.9
2019-04-11T22:24:37.212Z,11.7
2019-04-11T22:25:43.516Z,11.5
2019-04-11T22:26:49.869Z,11.9
2019-04-11T22:29:02.494Z,11.9
2019-04-11T22:30:08.777Z,11
2019-04-11T22:31:15.089Z,11.4
2019-04-11T22:35:40.030Z,11.5
2019-04-11T22:37:52.898Z,11.6
2019-04-11T22:38:59.220Z,11.7
2019-04-11T22:40:05.589Z,13.8
2019-04-11T22:42:18.456Z,12.2
2019-04-11T22:43:24.481Z,12.4
2019-04-11T22:47:49.721Z,12
2019-04-11T22:48:56.004Z,11.3
2019-04-11T22:53:21.227Z,11.6
2019-04-11T22:55:33.901Z,11.2
2019-04-11T22:57:46.005Z,13.4
2019-04-11T22:59:59.121Z,11.3
2019-04-11T23:01:05.428Z,11.3
2019-04-11T23:02:11.753Z,11.6
2019-04-11T23:04:24.341Z,11.4
2019-04-11T23:05:30.662Z,11.2
2019-04-11T23:06:36.925Z,12.2
2019-04-11T23:08:49.723Z,11.8
2019-04-11T23:09:55.860Z,11.4
2019-04-11T23:11:02.213Z,11.6
2019-04-11T23:15:27.423Z,12
2019-04-11T23:17:40.079Z,12.8
2019-04-11T23:22:05.283Z,12.1
2019-04-11T23:23:11.573Z,12
2019-04-11T23:24:17.092Z,11.5
2019-04-11T23:26:30.051Z,11.7
2019-04-11T23:27:36.802Z,12.4
2019-04-11T23:28:43.119Z,11.3
2019-04-11T23:30:55.821Z,11.1
2019-04-11T23:32:02.080Z,12.9
2019-04-11T23:33:08.420Z,11.4
2019-04-11T23:35:20.949Z,12
2019-04-11T23:39:46.247Z,12
2019-04-11T23:41:58.803Z,12
2019-04-11T23:45:17.736Z,12.1
2019-04-11T23:46:24.105Z,11.7
2019-04-11T23:49:42.967Z,11.8
2019-04-11T23:50:49.290Z,12.8
2019-04-11T23:53:01.946Z,11.9
2019-04-11T23:54:08.025Z,11.7
2019-04-11T23:55:14.544Z,12.3
2019-04-11T23:57:27.151Z,12
